Pagrindinis puslapis
METAR-TAF:

METAR-TAF

Oro uostai :

Karpathos, Graikija

platuma: 35-24-51N, ilguma: 027-08-54E, Aukštis: 6 m

Dabartinis oras

Ataskaita buvo paskelbta 10 valandos ir 18 minutes, ne 18:50 UTC
Vėjas 2 kt iš Šiaurės/Šiaurės Rytų
Temperatūra 14°C
Drėgmė 63%
Slėgis 1014 hPa
Matomumas 10 km arba daugiau
Mažai debesys ne aukštis 1800 ft

METAR: LGKP 091850Z 02002KT 9999 FEW018 14/07 Q1014

Laikas: 07:08 (05:08 UTC)

Prognozė

Ataskaita buvo paskelbta 3 valandos ir 8 minutes, ne 02:00 UTC
Prognozė galioja nuo 10 metu 03 UTC su 10 metu 12 UTC
Vėjas 10 kt iš Pietų/Pietvakarių
Matomumas 10 km arba daugiau
Išsisklaidę debesys ne aukštis 1800 ft
Su prošvaistėmis ne aukštis 6000 ft
Tikimybė 30% :
Laikinai
nuo 10 metu 03 UTC su 10 metu 12 UTC
Matomumas: 7000 m
lietus

TAF: LGKP 100200Z 1003/1012 20010KT 9999 SCT018 BKN060 PROB30 TEMPO 1003/1012 7000 RA

Orai ataskaitas ir orų prognozės (METAR, TAF).

turimą stotys yra geltonos ir raudonos taškus žemėlapyje.

Perkelti pele per norėdami pamatyti stoties vardą.

Tada spustelėkite, norėdami matyti oro stebėjimo ir prognozės.

Norėdami pakeisti žemėlapį: spustelėkite ant žalios mygtukų su juodo kryžiaus žemyn,; žalią mygtuką su brūkšneliu, jei norite nutolinti; arba žalių rodyklių gretimoms žemėlapius.


METAR-TAF: